sensor_id;sensor_type;location;lat;lon;timestamp;P1;durP1;ratioP1;P2;durP2;ratioP2
3941;SDS011;1985;48.592;8.850;2022-08-19T00:01:26;17.27;;;7.80;;
3941;SDS011;1985;48.592;8.850;2022-08-19T00:03:54;18.70;;;8.40;;
3941;SDS011;1985;48.592;8.850;2022-08-19T00:06:21;18.85;;;8.45;;
3941;SDS011;1985;48.592;8.850;2022-08-19T00:08:46;20.27;;;8.50;;
3941;SDS011;1985;48.592;8.850;2022-08-19T00:11:13;18.65;;;8.00;;
3941;SDS011;1985;48.592;8.850;2022-08-19T00:13:39;18.73;;;8.70;;
3941;SDS011;1985;48.592;8.850;2022-08-19T00:16:05;17.77;;;7.80;;
3941;SDS011;1985;48.592;8.850;2022-08-19T00:18:32;19.20;;;8.93;;
3941;SDS011;1985;48.592;8.850;2022-08-19T00:20:58;20.05;;;8.43;;
3941;SDS011;1985;48.592;8.850;2022-08-19T00:23:24;18.87;;;7.40;;
3941;SDS011;1985;48.592;8.850;2022-08-19T00:25:51;19.90;;;8.60;;
3941;SDS011;1985;48.592;8.850;2022-08-19T00:28:17;20.70;;;8.35;;
3941;SDS011;1985;48.592;8.850;2022-08-19T00:30:43;19.77;;;8.68;;
3941;SDS011;1985;48.592;8.850;2022-08-19T00:33:09;18.30;;;8.48;;
3941;SDS011;1985;48.592;8.850;2022-08-19T00:35:35;21.23;;;9.70;;
3941;SDS011;1985;48.592;8.850;2022-08-19T00:38:03;22.10;;;8.75;;
3941;SDS011;1985;48.592;8.850;2022-08-19T00:40:30;21.55;;;10.10;;
3941;SDS011;1985;48.592;8.850;2022-08-19T00:42:56;19.70;;;8.60;;
3941;SDS011;1985;48.592;8.850;2022-08-19T00:45:22;22.37;;;8.77;;
3941;SDS011;1985;48.592;8.850;2022-08-19T00:47:50;18.15;;;8.73;;
3941;SDS011;1985;48.592;8.850;2022-08-19T00:50:17;20.63;;;8.90;;
3941;SDS011;1985;48.592;8.850;2022-08-19T00:52:45;18.77;;;8.30;;
3941;SDS011;1985;48.592;8.850;2022-08-19T00:55:16;18.75;;;9.15;;
3941;SDS011;1985;48.592;8.850;2022-08-19T00:57:46;21.90;;;9.60;;
3941;SDS011;1985;48.592;8.850;2022-08-19T01:00:17;20.05;;;9.15;;
3941;SDS011;1985;48.592;8.850;2022-08-19T01:02:44;20.60;;;9.13;;
3941;SDS011;1985;48.592;8.850;2022-08-19T01:05:11;21.63;;;9.55;;
3941;SDS011;1985;48.592;8.850;2022-08-19T01:07:41;20.25;;;9.30;;
3941;SDS011;1985;48.592;8.850;2022-08-19T01:10:09;23.05;;;9.80;;
3941;SDS011;1985;48.592;8.850;2022-08-19T01:12:40;21.25;;;9.25;;
3941;SDS011;1985;48.592;8.850;2022-08-19T01:15:07;21.70;;;9.70;;
3941;SDS011;1985;48.592;8.850;2022-08-19T01:17:35;19.90;;;8.83;;
3941;SDS011;1985;48.592;8.850;2022-08-19T01:20:02;20.75;;;9.40;;
3941;SDS011;1985;48.592;8.850;2022-08-19T01:25:30;20.30;;;8.20;;
3941;SDS011;1985;48.592;8.850;2022-08-19T01:28:00;21.67;;;10.13;;
3941;SDS011;1985;48.592;8.850;2022-08-19T01:30:29;21.27;;;9.45;;
3941;SDS011;1985;48.592;8.850;2022-08-19T01:32:57;19.50;;;8.27;;
3941;SDS011;1985;48.592;8.850;2022-08-19T01:35:28;20.85;;;10.38;;
3941;SDS011;1985;48.592;8.850;2022-08-19T01:38:05;21.50;;;10.35;;
3941;SDS011;1985;48.592;8.850;2022-08-19T01:40:34;22.85;;;10.20;;
3941;SDS011;1985;48.592;8.850;2022-08-19T01:43:02;21.13;;;9.82;;
3941;SDS011;1985;48.592;8.850;2022-08-19T01:45:29;24.90;;;10.38;;
3941;SDS011;1985;48.592;8.850;2022-08-19T01:47:57;24.80;;;10.20;;
3941;SDS011;1985;48.592;8.850;2022-08-19T01:50:23;23.50;;;11.07;;
3941;SDS011;1985;48.592;8.850;2022-08-19T01:52:49;26.25;;;10.52;;
3941;SDS011;1985;48.592;8.850;2022-08-19T01:55:16;26.55;;;12.07;;
3941;SDS011;1985;48.592;8.850;2022-08-19T01:57:46;25.35;;;12.38;;
3941;SDS011;1985;48.592;8.850;2022-08-19T02:00:16;26.70;;;12.20;;
3941;SDS011;1985;48.592;8.850;2022-08-19T02:02:45;27.05;;;12.70;;
3941;SDS011;1985;48.592;8.850;2022-08-19T02:05:11;26.30;;;12.52;;
3941;SDS011;1985;48.592;8.850;2022-08-19T02:07:38;31.35;;;13.50;;
3941;SDS011;1985;48.592;8.850;2022-08-19T02:10:06;25.85;;;12.50;;
3941;SDS011;1985;48.592;8.850;2022-08-19T02:12:34;23.00;;;11.30;;
3941;SDS011;1985;48.592;8.850;2022-08-19T02:15:00;29.10;;;13.02;;
3941;SDS011;1985;48.592;8.850;2022-08-19T02:17:27;23.00;;;11.15;;
3941;SDS011;1985;48.592;8.850;2022-08-19T02:19:55;24.05;;;11.45;;
3941;SDS011;1985;48.592;8.850;2022-08-19T02:22:21;27.60;;;11.60;;
3941;SDS011;1985;48.592;8.850;2022-08-19T02:24:47;22.40;;;10.65;;
3941;SDS011;1985;48.592;8.850;2022-08-19T02:27:14;25.63;;;12.05;;
3941;SDS011;1985;48.592;8.850;2022-08-19T02:29:40;26.77;;;12.15;;
3941;SDS011;1985;48.592;8.850;2022-08-19T02:32:09;25.58;;;12.15;;
3941;SDS011;1985;48.592;8.850;2022-08-19T02:34:35;27.80;;;13.23;;
3941;SDS011;1985;48.592;8.850;2022-08-19T02:37:00;22.33;;;11.57;;
3941;SDS011;1985;48.592;8.850;2022-08-19T02:39:26;23.40;;;11.80;;
3941;SDS011;1985;48.592;8.850;2022-08-19T02:41:52;25.95;;;12.73;;
3941;SDS011;1985;48.592;8.850;2022-08-19T02:44:17;23.70;;;11.80;;
3941;SDS011;1985;48.592;8.850;2022-08-19T02:46:44;23.20;;;11.33;;
3941;SDS011;1985;48.592;8.850;2022-08-19T02:49:11;29.40;;;11.93;;
3941;SDS011;1985;48.592;8.850;2022-08-19T02:51:39;26.52;;;11.45;;
3941;SDS011;1985;48.592;8.850;2022-08-19T02:54:06;25.35;;;11.40;;
3941;SDS011;1985;48.592;8.850;2022-08-19T02:56:34;23.33;;;11.67;;
3941;SDS011;1985;48.592;8.850;2022-08-19T02:59:04;22.90;;;11.43;;
3941;SDS011;1985;48.592;8.850;2022-08-19T03:01:33;24.48;;;12.20;;
3941;SDS011;1985;48.592;8.850;2022-08-19T03:04:00;25.55;;;10.15;;
3941;SDS011;1985;48.592;8.850;2022-08-19T03:06:28;26.95;;;11.55;;
3941;SDS011;1985;48.592;8.850;2022-08-19T03:08:55;25.50;;;12.73;;
3941;SDS011;1985;48.592;8.850;2022-08-19T03:11:28;26.45;;;12.10;;
3941;SDS011;1985;48.592;8.850;2022-08-19T03:13:55;25.88;;;12.43;;
3941;SDS011;1985;48.592;8.850;2022-08-19T03:16:22;25.20;;;11.40;;
3941;SDS011;1985;48.592;8.850;2022-08-19T03:18:50;28.98;;;12.88;;
3941;SDS011;1985;48.592;8.850;2022-08-19T03:21:17;26.20;;;12.23;;
3941;SDS011;1985;48.592;8.850;2022-08-19T03:23:45;26.50;;;11.93;;
3941;SDS011;1985;48.592;8.850;2022-08-19T03:26:11;28.92;;;13.60;;
3941;SDS011;1985;48.592;8.850;2022-08-19T03:28:37;26.95;;;12.65;;
3941;SDS011;1985;48.592;8.850;2022-08-19T03:31:04;27.23;;;13.40;;
3941;SDS011;1985;48.592;8.850;2022-08-19T03:33:33;28.60;;;13.20;;
3941;SDS011;1985;48.592;8.850;2022-08-19T03:36:00;27.52;;;14.20;;
3941;SDS011;1985;48.592;8.850;2022-08-19T03:38:33;27.27;;;12.90;;
3941;SDS011;1985;48.592;8.850;2022-08-19T03:41:04;29.50;;;12.48;;
3941;SDS011;1985;48.592;8.850;2022-08-19T03:43:32;26.25;;;11.90;;
3941;SDS011;1985;48.592;8.850;2022-08-19T03:46:07;27.83;;;13.55;;
3941;SDS011;1985;48.592;8.850;2022-08-19T03:48:36;28.30;;;14.55;;
3941;SDS011;1985;48.592;8.850;2022-08-19T03:51:03;28.02;;;14.60;;
3941;SDS011;1985;48.592;8.850;2022-08-19T03:53:30;28.45;;;14.10;;
3941;SDS011;1985;48.592;8.850;2022-08-19T03:55:58;31.05;;;14.98;;
3941;SDS011;1985;48.592;8.850;2022-08-19T03:58:29;33.67;;;14.00;;
3941;SDS011;1985;48.592;8.850;2022-08-19T04:00:55;27.80;;;14.82;;
3941;SDS011;1985;48.592;8.850;2022-08-19T04:03:22;32.38;;;15.05;;
3941;SDS011;1985;48.592;8.850;2022-08-19T04:05:49;27.58;;;13.02;;
3941;SDS011;1985;48.592;8.850;2022-08-19T04:08:15;28.40;;;13.95;;
3941;SDS011;1985;48.592;8.850;2022-08-19T04:10:44;25.53;;;13.40;;
3941;SDS011;1985;48.592;8.850;2022-08-19T04:13:09;31.75;;;14.60;;
3941;SDS011;1985;48.592;8.850;2022-08-19T04:15:38;27.20;;;13.70;;
3941;SDS011;1985;48.592;8.850;2022-08-19T04:18:06;29.52;;;14.02;;
3941;SDS011;1985;48.592;8.850;2022-08-19T04:20:40;26.35;;;13.40;;
3941;SDS011;1985;48.592;8.850;2022-08-19T04:23:11;28.20;;;13.05;;
3941;SDS011;1985;48.592;8.850;2022-08-19T04:25:39;30.98;;;14.68;;
3941;SDS011;1985;48.592;8.850;2022-08-19T04:28:07;30.58;;;14.77;;
3941;SDS011;1985;48.592;8.850;2022-08-19T04:30:41;28.33;;;14.57;;
3941;SDS011;1985;48.592;8.850;2022-08-19T04:33:12;28.50;;;13.70;;
3941;SDS011;1985;48.592;8.850;2022-08-19T04:35:41;28.60;;;13.50;;
3941;SDS011;1985;48.592;8.850;2022-08-19T04:38:10;27.83;;;14.18;;
3941;SDS011;1985;48.592;8.850;2022-08-19T04:40:43;28.30;;;12.80;;
3941;SDS011;1985;48.592;8.850;2022-08-19T04:43:30;30.27;;;13.60;;
3941;SDS011;1985;48.592;8.850;2022-08-19T04:45:57;24.77;;;13.02;;
3941;SDS011;1985;48.592;8.850;2022-08-19T04:48:23;26.55;;;13.80;;
3941;SDS011;1985;48.592;8.850;2022-08-19T04:50:52;28.00;;;13.80;;
3941;SDS011;1985;48.592;8.850;2022-08-19T04:53:23;28.00;;;14.25;;
3941;SDS011;1985;48.592;8.850;2022-08-19T04:55:54;31.30;;;14.73;;
3941;SDS011;1985;48.592;8.850;2022-08-19T04:58:21;31.05;;;14.02;;
3941;SDS011;1985;48.592;8.850;2022-08-19T05:00:47;32.53;;;15.07;;
3941;SDS011;1985;48.592;8.850;2022-08-19T05:03:13;26.70;;;13.83;;
3941;SDS011;1985;48.592;8.850;2022-08-19T05:05:41;26.92;;;13.52;;
3941;SDS011;1985;48.592;8.850;2022-08-19T05:08:07;29.02;;;13.98;;
3941;SDS011;1985;48.592;8.850;2022-08-19T05:10:36;25.87;;;12.73;;
3941;SDS011;1985;48.592;8.850;2022-08-19T05:13:03;27.92;;;13.73;;
3941;SDS011;1985;48.592;8.850;2022-08-19T05:15:28;30.43;;;15.07;;
3941;SDS011;1985;48.592;8.850;2022-08-19T05:17:54;28.23;;;13.77;;
3941;SDS011;1985;48.592;8.850;2022-08-19T05:20:39;25.50;;;13.20;;
3941;SDS011;1985;48.592;8.850;2022-08-19T05:23:23;30.42;;;13.85;;
3941;SDS011;1985;48.592;8.850;2022-08-19T05:25:49;28.70;;;13.30;;
3941;SDS011;1985;48.592;8.850;2022-08-19T05:28:16;30.00;;;14.30;;
3941;SDS011;1985;48.592;8.850;2022-08-19T05:30:43;28.48;;;14.23;;
3941;SDS011;1985;48.592;8.850;2022-08-19T05:33:09;28.83;;;14.90;;
3941;SDS011;1985;48.592;8.850;2022-08-19T05:35:36;28.23;;;13.80;;
3941;SDS011;1985;48.592;8.850;2022-08-19T05:38:03;28.40;;;13.48;;
3941;SDS011;1985;48.592;8.850;2022-08-19T05:40:29;28.45;;;13.90;;
3941;SDS011;1985;48.592;8.850;2022-08-19T05:42:55;29.33;;;13.90;;
3941;SDS011;1985;48.592;8.850;2022-08-19T05:45:20;30.75;;;14.48;;
3941;SDS011;1985;48.592;8.850;2022-08-19T05:47:47;25.50;;;13.02;;
3941;SDS011;1985;48.592;8.850;2022-08-19T05:50:12;24.02;;;12.73;;
3941;SDS011;1985;48.592;8.850;2022-08-19T05:52:38;31.00;;;14.60;;
3941;SDS011;1985;48.592;8.850;2022-08-19T05:55:04;30.30;;;12.20;;
3941;SDS011;1985;48.592;8.850;2022-08-19T05:57:30;32.25;;;14.18;;
3941;SDS011;1985;48.592;8.850;2022-08-19T05:59:56;25.30;;;13.27;;
3941;SDS011;1985;48.592;8.850;2022-08-19T06:02:28;28.52;;;14.43;;
3941;SDS011;1985;48.592;8.850;2022-08-19T06:04:55;27.50;;;13.35;;
3941;SDS011;1985;48.592;8.850;2022-08-19T06:07:21;28.85;;;12.93;;
3941;SDS011;1985;48.592;8.850;2022-08-19T06:09:47;29.77;;;14.90;;
3941;SDS011;1985;48.592;8.850;2022-08-19T06:12:12;29.70;;;13.70;;
3941;SDS011;1985;48.592;8.850;2022-08-19T06:14:38;27.90;;;15.17;;
3941;SDS011;1985;48.592;8.850;2022-08-19T06:17:03;29.23;;;14.00;;
3941;SDS011;1985;48.592;8.850;2022-08-19T06:19:29;28.27;;;13.60;;
3941;SDS011;1985;48.592;8.850;2022-08-19T06:21:56;28.33;;;14.73;;
3941;SDS011;1985;48.592;8.850;2022-08-19T06:24:25;28.38;;;13.90;;
3941;SDS011;1985;48.592;8.850;2022-08-19T06:26:53;29.90;;;14.40;;
3941;SDS011;1985;48.592;8.850;2022-08-19T06:29:21;26.20;;;13.80;;
3941;SDS011;1985;48.592;8.850;2022-08-19T06:31:50;27.60;;;13.18;;
3941;SDS011;1985;48.592;8.850;2022-08-19T06:34:18;26.15;;;13.60;;
3941;SDS011;1985;48.592;8.850;2022-08-19T06:36:45;28.43;;;12.90;;
3941;SDS011;1985;48.592;8.850;2022-08-19T06:39:14;27.42;;;14.23;;
3941;SDS011;1985;48.592;8.850;2022-08-19T06:41:46;32.53;;;14.70;;
3941;SDS011;1985;48.592;8.850;2022-08-19T06:44:13;25.85;;;13.88;;
3941;SDS011;1985;48.592;8.850;2022-08-19T06:46:40;34.15;;;15.02;;
3941;SDS011;1985;48.592;8.850;2022-08-19T06:49:06;29.05;;;13.90;;
3941;SDS011;1985;48.592;8.850;2022-08-19T06:51:34;27.98;;;14.18;;
3941;SDS011;1985;48.592;8.850;2022-08-19T06:54:00;27.90;;;12.90;;
3941;SDS011;1985;48.592;8.850;2022-08-19T06:56:28;26.10;;;12.67;;
3941;SDS011;1985;48.592;8.850;2022-08-19T06:59:07;23.77;;;12.40;;
3941;SDS011;1985;48.592;8.850;2022-08-19T07:01:39;26.02;;;13.73;;
3941;SDS011;1985;48.592;8.850;2022-08-19T07:04:07;24.73;;;11.95;;
3941;SDS011;1985;48.592;8.850;2022-08-19T07:06:34;27.52;;;11.73;;
3941;SDS011;1985;48.592;8.850;2022-08-19T07:09:00;26.92;;;12.90;;
3941;SDS011;1985;48.592;8.850;2022-08-19T07:11:27;24.70;;;12.82;;
3941;SDS011;1985;48.592;8.850;2022-08-19T07:13:53;24.83;;;12.37;;
3941;SDS011;1985;48.592;8.850;2022-08-19T07:16:20;24.17;;;12.18;;
3941;SDS011;1985;48.592;8.850;2022-08-19T07:18:47;23.00;;;11.25;;
3941;SDS011;1985;48.592;8.850;2022-08-19T07:21:18;22.50;;;11.27;;
3941;SDS011;1985;48.592;8.850;2022-08-19T07:23:46;24.63;;;12.43;;
3941;SDS011;1985;48.592;8.850;2022-08-19T07:26:17;22.20;;;10.85;;
3941;SDS011;1985;48.592;8.850;2022-08-19T07:28:45;23.13;;;11.73;;
3941;SDS011;1985;48.592;8.850;2022-08-19T07:31:12;27.50;;;12.00;;
3941;SDS011;1985;48.592;8.850;2022-08-19T07:33:40;21.90;;;10.68;;
3941;SDS011;1985;48.592;8.850;2022-08-19T07:36:08;23.13;;;10.93;;
3941;SDS011;1985;48.592;8.850;2022-08-19T07:38:39;22.48;;;9.77;;
3941;SDS011;1985;48.592;8.850;2022-08-19T07:41:10;21.10;;;9.40;;
3941;SDS011;1985;48.592;8.850;2022-08-19T07:43:37;24.27;;;11.40;;
3941;SDS011;1985;48.592;8.850;2022-08-19T07:46:03;22.52;;;10.57;;
3941;SDS011;1985;48.592;8.850;2022-08-19T07:48:29;20.77;;;9.68;;
3941;SDS011;1985;48.592;8.850;2022-08-19T07:50:57;23.33;;;10.77;;
3941;SDS011;1985;48.592;8.850;2022-08-19T07:53:27;21.10;;;10.65;;
3941;SDS011;1985;48.592;8.850;2022-08-19T07:55:54;20.98;;;9.13;;
3941;SDS011;1985;48.592;8.850;2022-08-19T07:58:25;19.05;;;9.00;;
3941;SDS011;1985;48.592;8.850;2022-08-19T08:00:50;18.93;;;9.20;;
3941;SDS011;1985;48.592;8.850;2022-08-19T08:03:18;21.58;;;9.45;;
3941;SDS011;1985;48.592;8.850;2022-08-19T08:06:06;20.17;;;10.63;;
3941;SDS011;1985;48.592;8.850;2022-08-19T08:08:50;19.50;;;9.63;;
3941;SDS011;1985;48.592;8.850;2022-08-19T08:11:34;21.00;;;10.50;;
3941;SDS011;1985;48.592;8.850;2022-08-19T08:14:00;20.40;;;9.50;;
3941;SDS011;1985;48.592;8.850;2022-08-19T08:16:26;21.77;;;9.20;;
3941;SDS011;1985;48.592;8.850;2022-08-19T08:18:56;20.10;;;8.98;;
3941;SDS011;1985;48.592;8.850;2022-08-19T08:21:22;19.92;;;9.50;;
3941;SDS011;1985;48.592;8.850;2022-08-19T08:23:47;20.55;;;9.88;;
3941;SDS011;1985;48.592;8.850;2022-08-19T08:26:13;18.07;;;8.60;;
3941;SDS011;1985;48.592;8.850;2022-08-19T08:28:39;20.88;;;9.68;;
3941;SDS011;1985;48.592;8.850;2022-08-19T08:31:05;18.40;;;9.13;;
3941;SDS011;1985;48.592;8.850;2022-08-19T08:33:31;19.50;;;8.75;;
3941;SDS011;1985;48.592;8.850;2022-08-19T08:35:56;17.70;;;7.80;;
3941;SDS011;1985;48.592;8.850;2022-08-19T08:38:22;18.77;;;8.30;;
3941;SDS011;1985;48.592;8.850;2022-08-19T08:40:49;17.07;;;8.70;;
3941;SDS011;1985;48.592;8.850;2022-08-19T08:46:01;19.00;;;8.60;;
3941;SDS011;1985;48.592;8.850;2022-08-19T08:48:35;22.67;;;8.20;;
3941;SDS011;1985;48.592;8.850;2022-08-19T08:51:07;17.85;;;7.35;;
3941;SDS011;1985;48.592;8.850;2022-08-19T08:53:36;18.05;;;8.00;;
3941;SDS011;1985;48.592;8.850;2022-08-19T08:56:03;18.00;;;8.20;;
3941;SDS011;1985;48.592;8.850;2022-08-19T09:01:07;19.00;;;7.70;;
3941;SDS011;1985;48.592;8.850;2022-08-19T09:03:37;18.45;;;8.10;;
3941;SDS011;1985;48.592;8.850;2022-08-19T09:14:43;18.10;;;7.55;;
3941;SDS011;1985;48.592;8.850;2022-08-19T09:17:00;15.68;;;7.32;;
3941;SDS011;1985;48.592;8.850;2022-08-19T09:19:28;17.23;;;8.07;;
3941;SDS011;1985;48.592;8.850;2022-08-19T09:21:55;19.20;;;7.93;;
3941;SDS011;1985;48.592;8.850;2022-08-19T09:24:20;18.88;;;8.07;;
3941;SDS011;1985;48.592;8.850;2022-08-19T09:26:46;19.92;;;8.80;;
3941;SDS011;1985;48.592;8.850;2022-08-19T09:29:12;16.87;;;7.70;;
3941;SDS011;1985;48.592;8.850;2022-08-19T09:31:38;20.07;;;8.03;;
3941;SDS011;1985;48.592;8.850;2022-08-19T09:34:04;16.67;;;8.02;;
3941;SDS011;1985;48.592;8.850;2022-08-19T09:36:31;15.27;;;7.00;;
3941;SDS011;1985;48.592;8.850;2022-08-19T09:39:03;19.10;;;7.93;;
3941;SDS011;1985;48.592;8.850;2022-08-19T09:41:30;17.08;;;8.35;;
3941;SDS011;1985;48.592;8.850;2022-08-19T09:43:57;19.52;;;8.50;;
3941;SDS011;1985;48.592;8.850;2022-08-19T09:46:24;21.60;;;9.10;;
3941;SDS011;1985;48.592;8.850;2022-08-19T09:48:51;19.23;;;8.97;;
3941;SDS011;1985;48.592;8.850;2022-08-19T09:51:19;19.03;;;8.43;;
3941;SDS011;1985;48.592;8.850;2022-08-19T09:53:47;18.25;;;8.00;;
3941;SDS011;1985;48.592;8.850;2022-08-19T09:56:18;17.25;;;7.60;;
3941;SDS011;1985;48.592;8.850;2022-08-19T09:58:45;17.50;;;7.83;;
3941;SDS011;1985;48.592;8.850;2022-08-19T10:01:15;18.70;;;9.38;;
3941;SDS011;1985;48.592;8.850;2022-08-19T10:03:46;17.27;;;8.10;;
3941;SDS011;1985;48.592;8.850;2022-08-19T10:06:14;17.63;;;8.02;;
3941;SDS011;1985;48.592;8.850;2022-08-19T10:08:40;19.90;;;8.90;;
3941;SDS011;1985;48.592;8.850;2022-08-19T10:11:06;18.63;;;8.57;;
3941;SDS011;1985;48.592;8.850;2022-08-19T10:13:33;21.52;;;8.88;;
3941;SDS011;1985;48.592;8.850;2022-08-19T10:16:08;16.52;;;8.30;;
3941;SDS011;1985;48.592;8.850;2022-08-19T10:18:35;20.38;;;8.73;;
3941;SDS011;1985;48.592;8.850;2022-08-19T10:21:12;17.23;;;8.07;;
3941;SDS011;1985;48.592;8.850;2022-08-19T10:23:49;18.40;;;8.37;;
3941;SDS011;1985;48.592;8.850;2022-08-19T10:26:20;18.70;;;9.07;;
3941;SDS011;1985;48.592;8.850;2022-08-19T10:28:48;16.48;;;8.20;;
3941;SDS011;1985;48.592;8.850;2022-08-19T10:31:15;15.48;;;7.03;;
3941;SDS011;1985;48.592;8.850;2022-08-19T10:33:45;18.07;;;8.07;;
3941;SDS011;1985;48.592;8.850;2022-08-19T10:36:13;16.15;;;7.90;;
3941;SDS011;1985;48.592;8.850;2022-08-19T10:38:45;18.15;;;7.63;;
3941;SDS011;1985;48.592;8.850;2022-08-19T10:41:13;18.77;;;7.85;;
3941;SDS011;1985;48.592;8.850;2022-08-19T10:43:41;15.80;;;7.30;;
3941;SDS011;1985;48.592;8.850;2022-08-19T10:46:11;18.15;;;7.60;;
3941;SDS011;1985;48.592;8.850;2022-08-19T10:48:40;16.25;;;7.10;;
3941;SDS011;1985;48.592;8.850;2022-08-19T10:51:06;15.77;;;6.73;;
3941;SDS011;1985;48.592;8.850;2022-08-19T10:53:51;15.80;;;7.35;;
3941;SDS011;1985;48.592;8.850;2022-08-19T10:56:17;20.88;;;7.15;;
3941;SDS011;1985;48.592;8.850;2022-08-19T10:59:02;14.68;;;6.97;;
3941;SDS011;1985;48.592;8.850;2022-08-19T11:01:29;14.82;;;7.13;;
3941;SDS011;1985;48.592;8.850;2022-08-19T11:03:57;14.97;;;6.47;;
3941;SDS011;1985;48.592;8.850;2022-08-19T11:06:25;16.80;;;6.75;;
3941;SDS011;1985;48.592;8.850;2022-08-19T11:08:51;16.13;;;6.73;;
3941;SDS011;1985;48.592;8.850;2022-08-19T11:11:21;14.57;;;6.43;;
3941;SDS011;1985;48.592;8.850;2022-08-19T11:13:47;15.13;;;5.90;;
3941;SDS011;1985;48.592;8.850;2022-08-19T11:16:24;13.32;;;5.35;;
3941;SDS011;1985;48.592;8.850;2022-08-19T11:18:53;18.80;;;6.60;;
3941;SDS011;1985;48.592;8.850;2022-08-19T11:21:30;16.27;;;5.95;;
3941;SDS011;1985;48.592;8.850;2022-08-19T11:23:59;14.93;;;5.85;;
3941;SDS011;1985;48.592;8.850;2022-08-19T11:26:26;14.65;;;5.90;;
3941;SDS011;1985;48.592;8.850;2022-08-19T11:28:53;14.98;;;5.50;;
3941;SDS011;1985;48.592;8.850;2022-08-19T11:31:23;14.73;;;5.10;;
3941;SDS011;1985;48.592;8.850;2022-08-19T11:33:50;14.05;;;5.50;;
3941;SDS011;1985;48.592;8.850;2022-08-19T11:36:18;13.18;;;5.10;;
3941;SDS011;1985;48.592;8.850;2022-08-19T11:38:45;12.13;;;4.53;;
3941;SDS011;1985;48.592;8.850;2022-08-19T11:41:13;13.10;;;4.88;;
3941;SDS011;1985;48.592;8.850;2022-08-19T11:43:40;13.20;;;5.03;;
3941;SDS011;1985;48.592;8.850;2022-08-19T11:46:07;13.23;;;5.25;;
3941;SDS011;1985;48.592;8.850;2022-08-19T11:48:35;14.13;;;6.40;;
3941;SDS011;1985;48.592;8.850;2022-08-19T11:51:03;15.00;;;5.40;;
3941;SDS011;1985;48.592;8.850;2022-08-19T11:53:34;14.10;;;5.95;;
3941;SDS011;1985;48.592;8.850;2022-08-19T11:56:00;12.38;;;4.70;;
3941;SDS011;1985;48.592;8.850;2022-08-19T11:58:27;12.00;;;4.97;;
3941;SDS011;1985;48.592;8.850;2022-08-19T12:00:54;11.90;;;4.27;;
3941;SDS011;1985;48.592;8.850;2022-08-19T12:03:20;14.50;;;5.30;;
3941;SDS011;1985;48.592;8.850;2022-08-19T12:05:46;12.23;;;4.70;;
3941;SDS011;1985;48.592;8.850;2022-08-19T12:08:12;11.73;;;4.40;;
3941;SDS011;1985;48.592;8.850;2022-08-19T12:10:39;11.27;;;4.13;;
3941;SDS011;1985;48.592;8.850;2022-08-19T12:13:07;11.50;;;4.22;;
3941;SDS011;1985;48.592;8.850;2022-08-19T12:15:36;12.02;;;4.57;;
3941;SDS011;1985;48.592;8.850;2022-08-19T12:18:05;11.90;;;4.22;;
3941;SDS011;1985;48.592;8.850;2022-08-19T12:20:32;12.23;;;4.65;;
3941;SDS011;1985;48.592;8.850;2022-08-19T12:23:00;11.45;;;4.55;;
3941;SDS011;1985;48.592;8.850;2022-08-19T12:25:26;11.87;;;4.03;;
3941;SDS011;1985;48.592;8.850;2022-08-19T12:27:51;12.23;;;4.43;;
3941;SDS011;1985;48.592;8.850;2022-08-19T12:30:17;11.90;;;3.80;;
3941;SDS011;1985;48.592;8.850;2022-08-19T12:32:42;15.27;;;4.20;;
3941;SDS011;1985;48.592;8.850;2022-08-19T12:35:08;12.10;;;4.60;;
3941;SDS011;1985;48.592;8.850;2022-08-19T12:37:35;11.60;;;4.23;;
3941;SDS011;1985;48.592;8.850;2022-08-19T12:40:01;11.20;;;3.80;;
3941;SDS011;1985;48.592;8.850;2022-08-19T12:42:27;12.13;;;4.45;;
3941;SDS011;1985;48.592;8.850;2022-08-19T12:44:54;11.70;;;4.00;;
3941;SDS011;1985;48.592;8.850;2022-08-19T12:47:20;11.98;;;4.18;;
3941;SDS011;1985;48.592;8.850;2022-08-19T12:49:46;12.83;;;4.50;;
3941;SDS011;1985;48.592;8.850;2022-08-19T12:52:12;12.63;;;4.40;;
3941;SDS011;1985;48.592;8.850;2022-08-19T12:54:41;11.97;;;4.20;;
3941;SDS011;1985;48.592;8.850;2022-08-19T12:57:08;10.40;;;3.80;;
3941;SDS011;1985;48.592;8.850;2022-08-19T12:59:35;12.40;;;4.10;;
3941;SDS011;1985;48.592;8.850;2022-08-19T13:02:03;13.35;;;4.00;;
3941;SDS011;1985;48.592;8.850;2022-08-19T13:04:30;11.65;;;4.65;;
3941;SDS011;1985;48.592;8.850;2022-08-19T13:06:57;10.63;;;3.65;;
3941;SDS011;1985;48.592;8.850;2022-08-19T13:09:23;10.75;;;3.78;;
3941;SDS011;1985;48.592;8.850;2022-08-19T13:11:49;10.73;;;4.10;;
3941;SDS011;1985;48.592;8.850;2022-08-19T13:14:15;11.90;;;4.53;;
3941;SDS011;1985;48.592;8.850;2022-08-19T13:16:40;12.43;;;5.20;;
3941;SDS011;1985;48.592;8.850;2022-08-19T13:19:06;11.40;;;4.80;;
3941;SDS011;1985;48.592;8.850;2022-08-19T13:21:32;12.25;;;5.00;;
3941;SDS011;1985;48.592;8.850;2022-08-19T13:23:58;14.23;;;5.00;;
3941;SDS011;1985;48.592;8.850;2022-08-19T13:26:23;11.80;;;4.70;;
3941;SDS011;1985;48.592;8.850;2022-08-19T13:28:49;12.53;;;5.00;;
3941;SDS011;1985;48.592;8.850;2022-08-19T13:31:35;13.98;;;5.47;;
3941;SDS011;1985;48.592;8.850;2022-08-19T13:34:26;11.80;;;4.63;;
3941;SDS011;1985;48.592;8.850;2022-08-19T13:36:54;14.95;;;5.10;;
3941;SDS011;1985;48.592;8.850;2022-08-19T13:39:20;14.23;;;5.90;;
3941;SDS011;1985;48.592;8.850;2022-08-19T13:41:47;12.93;;;4.75;;
3941;SDS011;1985;48.592;8.850;2022-08-19T13:44:14;12.00;;;5.10;;
3941;SDS011;1985;48.592;8.850;2022-08-19T13:46:43;11.88;;;5.15;;
3941;SDS011;1985;48.592;8.850;2022-08-19T13:49:11;13.00;;;5.23;;
3941;SDS011;1985;48.592;8.850;2022-08-19T13:51:38;13.10;;;5.13;;
3941;SDS011;1985;48.592;8.850;2022-08-19T13:54:07;16.02;;;5.40;;
3941;SDS011;1985;48.592;8.850;2022-08-19T13:56:34;13.43;;;4.93;;
3941;SDS011;1985;48.592;8.850;2022-08-19T13:59:04;14.60;;;5.65;;
3941;SDS011;1985;48.592;8.850;2022-08-19T14:01:29;12.77;;;5.53;;
3941;SDS011;1985;48.592;8.850;2022-08-19T14:03:55;12.77;;;5.33;;
3941;SDS011;1985;48.592;8.850;2022-08-19T14:06:21;12.80;;;5.27;;
3941;SDS011;1985;48.592;8.850;2022-08-19T14:08:47;16.70;;;5.30;;
3941;SDS011;1985;48.592;8.850;2022-08-19T14:11:13;11.68;;;4.90;;
3941;SDS011;1985;48.592;8.850;2022-08-19T14:13:40;13.10;;;5.20;;
3941;SDS011;1985;48.592;8.850;2022-08-19T14:16:06;26.13;;;6.00;;
3941;SDS011;1985;48.592;8.850;2022-08-19T14:18:36;12.23;;;5.20;;
3941;SDS011;1985;48.592;8.850;2022-08-19T14:21:02;13.18;;;5.85;;
3941;SDS011;1985;48.592;8.850;2022-08-19T14:23:29;15.55;;;5.60;;
3941;SDS011;1985;48.592;8.850;2022-08-19T14:26:06;14.32;;;5.40;;
3941;SDS011;1985;48.592;8.850;2022-08-19T14:28:34;13.00;;;5.67;;
3941;SDS011;1985;48.592;8.850;2022-08-19T14:30:59;12.15;;;4.90;;
3941;SDS011;1985;48.592;8.850;2022-08-19T14:33:25;11.25;;;4.80;;
3941;SDS011;1985;48.592;8.850;2022-08-19T14:35:51;13.38;;;5.25;;
3941;SDS011;1985;48.592;8.850;2022-08-19T14:38:17;12.77;;;5.30;;
3941;SDS011;1985;48.592;8.850;2022-08-19T14:40:43;12.30;;;5.07;;
3941;SDS011;1985;48.592;8.850;2022-08-19T14:43:10;12.87;;;5.10;;
3941;SDS011;1985;48.592;8.850;2022-08-19T14:45:37;12.30;;;4.60;;
3941;SDS011;1985;48.592;8.850;2022-08-19T14:48:05;13.00;;;4.90;;
3941;SDS011;1985;48.592;8.850;2022-08-19T14:50:32;11.77;;;4.95;;
3941;SDS011;1985;48.592;8.850;2022-08-19T14:52:59;13.45;;;5.32;;
3941;SDS011;1985;48.592;8.850;2022-08-19T14:55:28;14.30;;;6.00;;
3941;SDS011;1985;48.592;8.850;2022-08-19T14:57:54;12.45;;;5.15;;
3941;SDS011;1985;48.592;8.850;2022-08-19T15:00:20;12.57;;;4.97;;
3941;SDS011;1985;48.592;8.850;2022-08-19T15:02:47;12.23;;;4.70;;
3941;SDS011;1985;48.592;8.850;2022-08-19T15:05:13;12.48;;;4.70;;
3941;SDS011;1985;48.592;8.850;2022-08-19T15:07:39;12.90;;;4.50;;
3941;SDS011;1985;48.592;8.850;2022-08-19T15:10:06;12.25;;;4.90;;
3941;SDS011;1985;48.592;8.850;2022-08-19T15:12:34;12.50;;;4.40;;
3941;SDS011;1985;48.592;8.850;2022-08-19T15:15:00;12.43;;;4.60;;
3941;SDS011;1985;48.592;8.850;2022-08-19T15:17:26;12.32;;;5.07;;